Time;durP1;ratioP1;P1;durP2;ratioP2;P2;SDS_P1;SDS_P2;PMS_P1;PMS_P2;Temp;Humidity;BMP_temperature;BMP_pressure;BME280_temperature;BME280_humidity;BME280_pressure;Samples;Min_cycle;Max_cycle;Signal;HPM_P1;HPM_P2
2022/02/20 00:00:15;;;;;;;;;2.25;1.00;;;;;10.52;69.18;101617.56;5014039;28;46233;-70
2022/02/20 00:02:40;;;;;;;;;1.00;1.00;;;;;10.52;69.26;101622.81;5014062;28;45618;-70
2022/02/20 00:05:06;;;;;;;;;0.50;0.50;;;;;10.52;69.09;101624.59;5013535;28;58476;-70
2022/02/20 00:07:31;;;;;;;;;4.00;1.25;;;;;10.52;69.00;101629.84;5014088;28;45529;-70
2022/02/20 00:09:57;;;;;;;;;0.50;0.25;;;;;10.54;69.15;101620.13;5014824;28;54771;-70
2022/02/20 00:12:22;;;;;;;;;2.00;1.00;;;;;10.56;69.25;101626.22;5014114;28;45474;-70
2022/02/20 00:14:47;;;;;;;;;2.00;0.00;;;;;10.58;69.42;101625.25;5014499;28;45442;-70
2022/02/20 00:17:12;;;;;;;;;3.75;1.50;;;;;10.59;69.67;101619.09;5014281;28;45771;-70
2022/02/20 00:19:38;;;;;;;;;1.00;0.75;;;;;10.58;69.93;101617.38;4995899;28;47667;-70
2022/02/20 00:22:03;;;;;;;;;1.00;1.00;;;;;10.60;70.01;101628.72;5000588;28;47017;-70
2022/02/20 00:24:28;;;;;;;;;0.00;0.00;;;;;10.60;69.66;101627.88;5013359;28;45310;-70
2022/02/20 00:26:54;;;;;;;;;2.00;2.00;;;;;10.63;70.10;101623.38;5013818;28;45494;-70
2022/02/20 00:29:19;;;;;;;;;0.75;0.75;;;;;10.64;70.13;101616.34;5013424;28;46350;-70
2022/02/20 00:31:44;;;;;;;;;2.00;1.00;;;;;10.65;70.31;101618.09;5013839;28;46333;-70
2022/02/20 00:34:10;;;;;;;;;1.75;0.00;;;;;10.66;70.05;101614.53;5014743;28;45430;-70
2022/02/20 00:36:35;;;;;;;;;1.50;1.00;;;;;10.66;70.41;101617.19;5014015;28;45278;-70
2022/02/20 00:39:00;;;;;;;;;0.25;0.25;;;;;10.64;70.35;101622.44;5013413;28;45629;-70
2022/02/20 00:41:26;;;;;;;;;0.75;0.75;;;;;10.65;70.78;101620.72;5013805;28;45411;-70
2022/02/20 00:43:51;;;;;;;;;1.50;1.25;;;;;10.66;70.77;101610.16;5013795;28;45626;-70
2022/02/20 00:46:16;;;;;;;;;3.00;1.00;;;;;10.65;71.47;101615.47;5014107;28;45333;-70
2022/02/20 00:48:42;;;;;;;;;0.00;0.00;;;;;10.61;71.24;101617.31;5014410;28;45592;-70
2022/02/20 00:51:07;;;;;;;;;1.25;1.25;;;;;10.57;71.47;101622.69;5012801;28;53147;-70
2022/02/20 00:53:32;;;;;;;;;1.75;1.00;;;;;10.55;71.98;101616.63;5013521;28;45394;-70
2022/02/20 00:55:58;;;;;;;;;2.00;1.00;;;;;10.54;71.98;101615.72;5013624;28;45337;-70
2022/02/20 00:58:23;;;;;;;;;1.00;1.00;;;;;10.55;72.29;101621.88;5015795;28;45312;-70
2022/02/20 01:00:48;;;;;;;;;1.00;1.00;;;;;10.53;72.40;101614.03;5017853;28;46750;-70
2022/02/20 01:03:14;;;;;;;;;0.75;0.75;;;;;10.55;72.56;101620.13;5017041;28;45454;-70
2022/02/20 01:05:39;;;;;;;;;2.00;2.00;;;;;10.59;72.34;101619.09;5016486;28;45390;-70
2022/02/20 01:08:06;;;;;;;;;0.25;0.25;;;;;10.61;72.54;101619.06;5016961;28;45352;-69
2022/02/20 01:10:31;;;;;;;;;3.75;1.00;;;;;10.63;72.54;101606.72;5017127;28;45360;-70
2022/02/20 01:12:56;;;;;;;;;1.00;1.00;;;;;10.66;72.77;101615.41;5017839;28;45363;-69
2022/02/20 01:15:22;;;;;;;;;0.50;0.50;;;;;10.65;72.76;101611.06;5016689;28;45473;-70
2022/02/20 01:17:48;;;;;;;;;1.00;1.00;;;;;10.68;72.56;101621.47;5016726;28;47103;-69
2022/02/20 01:20:13;;;;;;;;;2.00;0.00;;;;;10.68;72.73;101612.72;5016391;28;45520;-69
2022/02/20 01:22:39;;;;;;;;;1.00;1.00;;;;;10.66;72.85;101609.28;5016318;28;45505;-70
2022/02/20 01:25:05;;;;;;;;;2.00;0.25;;;;;10.67;72.70;101613.63;5017425;28;45368;-69
2022/02/20 01:27:30;;;;;;;;;3.75;1.00;;;;;10.67;73.04;101609.22;5016383;28;45350;-70
2022/02/20 01:29:56;;;;;;;;;1.00;1.00;;;;;10.69;72.77;101610.03;5016460;28;45749;-70
2022/02/20 01:32:21;;;;;;;;;2.00;1.00;;;;;10.73;72.80;101609.97;5017496;28;45457;-70
2022/02/20 01:34:46;;;;;;;;;6.00;2.00;;;;;10.76;72.84;101610.75;5015904;28;45403;-70
2022/02/20 01:37:12;;;;;;;;;2.00;1.00;;;;;10.77;73.08;101607.19;5016555;28;46375;-70
2022/02/20 01:39:37;;;;;;;;;3.00;1.00;;;;;10.79;73.05;101615.03;5017291;28;45405;-69
2022/02/20 01:42:03;;;;;;;;;1.25;1.00;;;;;10.78;72.64;101614.16;5016413;28;45419;-70
2022/02/20 01:44:28;;;;;;;;;2.00;2.00;;;;;10.79;73.27;101623.78;5016653;28;45291;-70
2022/02/20 01:47:02;;;;;;;;;1.75;1.50;;;;;10.81;73.21;101624.63;5016512;28;46312;-70
2022/02/20 01:49:28;;;;;;;;;3.00;1.50;;;;;10.84;73.21;101627.13;5015678;28;45770;-70
2022/02/20 01:51:53;;;;;;;;;1.25;1.00;;;;;10.83;73.50;101627.19;5017059;28;45290;-70
2022/02/20 01:54:18;;;;;;;;;1.50;1.50;;;;;10.84;73.71;101628.91;5016397;28;45359;-70
2022/02/20 01:56:44;;;;;;;;;2.25;0.00;;;;;10.83;73.47;101617.53;5015088;28;45535;-70
2022/02/20 01:59:09;;;;;;;;;1.00;1.00;;;;;10.85;73.34;101620.09;5015714;28;45459;-71
2022/02/20 02:01:34;;;;;;;;;6.25;1.00;;;;;10.86;73.70;101609.56;5015888;28;45499;-71
2022/02/20 02:04:00;;;;;;;;;1.50;1.50;;;;;10.87;73.71;101606.00;5016470;28;45382;-70
2022/02/20 02:06:25;;;;;;;;;6.50;2.50;;;;;10.87;73.75;101600.75;5014836;28;46355;-70
2022/02/20 02:08:50;;;;;;;;;6.25;3.25;;;;;10.90;73.59;101605.91;5015429;28;45348;-71
2022/02/20 02:11:16;;;;;;;;;2.00;1.75;;;;;10.92;73.66;101595.34;5014564;28;45402;-70
2022/02/20 02:13:42;;;;;;;;;0.25;0.25;;;;;10.90;73.67;101597.16;5015946;28;45458;-70
2022/02/20 02:16:07;;;;;;;;;3.50;1.50;;;;;10.90;73.62;101591.91;5015872;28;45455;-70
2022/02/20 02:18:32;;;;;;;;;4.25;1.75;;;;;10.91;73.91;101593.63;5015341;28;45651;-71
2022/02/20 02:20:58;;;;;;;;;3.50;3.25;;;;;10.93;73.96;101602.34;5016037;28;45474;-70
2022/02/20 02:23:23;;;;;;;;;4.25;2.50;;;;;10.94;73.85;101609.31;5015765;28;45448;-70
2022/02/20 02:25:51;;;;;;;;;1.00;1.00;;;;;10.94;73.77;101609.31;5015462;28;45459;-71
2022/02/20 02:28:17;;;;;;;;;3.25;2.00;;;;;10.96;74.00;101608.38;5015837;28;45799;-69
2022/02/20 02:30:42;;;;;;;;;3.50;1.75;;;;;10.98;73.67;101609.19;5016292;28;45366;-71
2022/02/20 02:33:08;;;;;;;;;2.50;2.00;;;;;11.00;73.69;101606.50;5015023;28;45402;-71
2022/02/20 02:35:33;;;;;;;;;4.50;2.00;;;;;11.02;73.55;101601.19;5015126;28;45526;-70
2022/02/20 02:37:59;;;;;;;;;2.75;1.00;;;;;11.01;73.56;101605.56;5015913;28;45431;-71
2022/02/20 02:40:24;;;;;;;;;3.00;2.00;;;;;11.02;73.48;101612.59;5015264;28;46845;-71
2022/02/20 02:42:50;;;;;;;;;2.75;2.00;;;;;11.04;73.45;101604.63;5015965;28;45367;-71
2022/02/20 02:45:15;;;;;;;;;2.25;2.25;;;;;11.05;73.51;101595.81;5014698;28;45506;-70
2022/02/20 02:47:45;;;;;;;;;4.50;1.00;;;;;11.05;73.57;101595.81;5013302;28;47826;-70
2022/02/20 02:50:10;;;;;;;;;3.00;3.00;;;;;11.05;73.75;101596.69;5014752;28;45473;-71
2022/02/20 02:52:36;;;;;;;;;6.00;2.00;;;;;11.04;73.64;101602.00;5015584;28;45435;-70
2022/02/20 02:55:01;;;;;;;;;2.25;1.75;;;;;10.98;73.55;101609.19;5016027;28;45338;-71
2022/02/20 02:57:26;;;;;;;;;3.00;2.00;;;;;10.94;73.66;101611.94;5014731;28;45998;-71
2022/02/20 02:59:52;;;;;;;;;2.75;1.75;;;;;10.92;73.87;101613.78;5014935;28;50667;-71
2022/02/20 03:02:17;;;;;;;;;4.00;1.00;;;;;10.86;73.48;101617.44;5015000;28;45446;-71
2022/02/20 03:04:42;;;;;;;;;4.00;2.00;;;;;10.85;74.04;101614.84;5014980;28;45449;-71
2022/02/20 03:07:09;;;;;;;;;2.00;1.00;;;;;10.80;73.85;101614.13;5014344;28;45550;-71
2022/02/20 03:09:36;;;;;;;;;6.00;3.00;;;;;10.71;74.00;101610.88;5014288;28;45467;-71
2022/02/20 03:12:01;;;;;;;;;2.25;1.75;;;;;10.62;74.10;101611.13;5013466;28;45481;-71
2022/02/20 03:14:27;;;;;;;;;3.00;1.00;;;;;10.56;73.90;101608.69;5012926;28;47109;-71
2022/02/20 03:16:52;;;;;;;;;2.00;1.50;;;;;10.49;74.45;101601.88;5013237;28;45607;-71
2022/02/20 03:19:18;;;;;;;;;1.75;1.00;;;;;10.46;74.73;101601.97;5013472;28;45368;-71
2022/02/20 03:21:44;;;;;;;;;8.25;2.00;;;;;10.38;74.61;101588.19;5013698;28;45317;-71
2022/02/20 03:24:09;;;;;;;;;2.00;2.00;;;;;10.31;75.15;101587.50;5012876;28;45838;-71
2022/02/20 03:26:34;;;;;;;;;6.75;2.00;;;;;10.27;75.53;101601.63;5013396;28;45611;-69
2022/02/20 03:29:00;;;;;;;;;1.00;1.00;;;;;10.24;75.31;101606.97;5014279;28;45629;-69
2022/02/20 03:31:25;;;;;;;;;3.00;2.00;;;;;10.22;76.55;101605.25;5012631;28;45634;-69
2022/02/20 03:33:50;;;;;;;;;8.25;3.00;;;;;10.19;76.13;101621.97;5014103;28;46280;-70
2022/02/20 03:36:16;;;;;;;;;7.50;2.75;;;;;10.20;76.61;101624.53;5012519;28;48943;-69
2022/02/20 03:38:42;;;;;;;;;3.50;1.00;;;;;10.20;76.33;101619.28;5012901;28;45555;-69
2022/02/20 03:41:07;;;;;;;;;3.00;1.00;;;;;10.23;76.94;101631.47;5013197;28;45652;-69
2022/02/20 03:43:33;;;;;;;;;2.50;1.50;;;;;10.26;76.57;101631.44;5012994;28;46029;-70
2022/02/20 03:45:59;;;;;;;;;4.50;2.75;;;;;10.28;76.82;101628.75;5013853;28;45581;-69
2022/02/20 03:48:24;;;;;;;;;2.50;2.00;;;;;10.25;77.07;101620.97;5012967;28;45352;-69
2022/02/20 03:50:50;;;;;;;;;3.25;1.00;;;;;10.27;76.83;101629.66;5013261;28;45622;-69
2022/02/20 03:53:15;;;;;;;;;2.00;2.00;;;;;10.29;76.84;101620.84;5012417;28;48426;-71
2022/02/20 03:55:41;;;;;;;;;7.00;1.25;;;;;10.34;77.04;101623.34;5012751;28;45675;-70
2022/02/20 03:58:06;;;;;;;;;2.50;2.50;;;;;10.38;77.18;101627.59;5014625;28;45415;-71
2022/02/20 04:00:31;;;;;;;;;2.00;1.25;;;;;10.39;76.84;101621.47;5013306;28;45513;-70
2022/02/20 04:02:57;;;;;;;;;6.50;2.75;;;;;10.35;76.96;101625.94;5000265;28;46554;-71
2022/02/20 04:05:22;;;;;;;;;8.75;3.00;;;;;10.32;77.18;101617.25;5014574;28;45494;-70
2022/02/20 04:07:48;;;;;;;;;6.75;2.00;;;;;10.28;77.32;101624.34;5014062;28;45308;-71
2022/02/20 04:10:14;;;;;;;;;6.25;1.50;;;;;10.25;77.52;101618.34;5014011;28;45368;-70
2022/02/20 04:12:40;;;;;;;;;3.50;1.75;;;;;10.24;77.73;101620.09;5014246;28;45488;-70
2022/02/20 04:15:06;;;;;;;;;3.00;2.00;;;;;10.26;77.44;101604.28;5013867;28;45853;-70
2022/02/20 04:17:43;;;;;;;;;1.75;1.00;;;;;10.32;77.66;101609.38;5014147;28;45496;-71
2022/02/20 04:20:09;;;;;;;;;1.50;1.00;;;;;10.36;77.58;101614.50;5013829;28;46897;-71
2022/02/20 04:22:35;;;;;;;;;2.50;2.50;;;;;10.40;77.56;101621.41;5013602;28;46319;-71
2022/02/20 04:25:02;;;;;;;;;3.00;1.00;;;;;10.43;77.57;101608.16;5014840;28;45566;-70
2022/02/20 04:27:27;;;;;;;;;2.50;2.50;;;;;10.43;77.66;101600.28;5013671;28;45312;-71
2022/02/20 04:29:52;;;;;;;;;3.50;1.50;;;;;10.44;77.48;101601.16;5014435;28;45438;-71
2022/02/20 04:32:18;;;;;;;;;7.25;2.00;;;;;10.45;77.73;101592.38;5013907;28;46773;-70
2022/02/20 04:34:43;;;;;;;;;5.50;3.00;;;;;10.48;77.56;101597.53;5017193;28;45364;-70
2022/02/20 04:37:08;;;;;;;;;8.25;1.25;;;;;10.49;77.35;101607.13;5017942;28;45332;-70
2022/02/20 04:39:34;;;;;;;;;3.50;3.00;;;;;10.50;77.35;101601.00;5017433;28;47380;-70
2022/02/20 04:41:59;;;;;;;;;1.00;1.00;;;;;10.49;77.64;101604.50;5016709;28;45638;-71
2022/02/20 04:44:25;;;;;;;;;2.50;1.25;;;;;10.51;77.46;101609.72;5017035;28;45357;-70
2022/02/20 04:46:51;;;;;;;;;3.75;2.75;;;;;10.50;77.54;101605.38;5017801;28;45408;-70
2022/02/20 04:49:16;;;;;;;;;1.00;1.00;;;;;10.47;77.48;101598.44;5017337;28;49562;-71
2022/02/20 04:51:41;;;;;;;;;3.25;1.00;;;;;10.46;77.45;101588.84;5017780;28;46163;-71
2022/02/20 04:54:07;;;;;;;;;3.25;2.00;;;;;10.43;77.48;101584.50;5016749;28;45297;-71
2022/02/20 04:56:32;;;;;;;;;2.25;1.75;;;;;10.41;77.81;101581.06;5016852;28;45197;-71
2022/02/20 04:58:58;;;;;;;;;4.75;3.00;;;;;10.37;77.73;101570.69;5017343;28;45397;-70
2022/02/20 05:01:24;;;;;;;;;2.50;1.00;;;;;10.30;77.66;101569.16;5016121;28;46388;-71
2022/02/20 05:03:50;;;;;;;;;3.00;1.00;;;;;10.25;77.94;101568.44;5017109;28;45770;-70
2022/02/20 05:06:15;;;;;;;;;3.25;2.75;;;;;10.21;77.91;101562.34;5016618;28;45537;-70
2022/02/20 05:08:40;;;;;;;;;4.00;2.25;;;;;10.18;78.22;101559.84;5016741;28;45526;-70
2022/02/20 05:11:06;;;;;;;;;1.00;1.00;;;;;10.16;77.98;101562.47;5016392;28;46298;-70
2022/02/20 05:13:31;;;;;;;;;2.50;1.75;;;;;10.13;78.47;101554.72;5016240;28;45609;-70
2022/02/20 05:15:57;;;;;;;;;4.50;2.25;;;;;10.13;78.42;101552.09;5017881;28;45358;-70
2022/02/20 05:18:22;;;;;;;;;2.75;2.25;;;;;10.10;78.40;101548.66;5016762;28;45421;-70
2022/02/20 05:20:52;;;;;;;;;2.00;2.00;;;;;10.09;78.58;101546.94;5016093;28;51909;-70
2022/02/20 05:23:17;;;;;;;;;2.25;1.75;;;;;10.09;78.52;101539.94;5016483;28;45795;-70
2022/02/20 05:25:43;;;;;;;;;2.75;2.75;;;;;10.08;78.52;101542.63;5016723;28;45573;-71
2022/02/20 05:28:08;;;;;;;;;3.25;2.50;;;;;10.08;78.30;101532.97;5016860;28;45492;-70
2022/02/20 05:30:33;;;;;;;;;2.50;1.75;;;;;10.06;78.45;101532.13;5016392;28;48601;-70
2022/02/20 05:32:59;;;;;;;;;1.00;1.00;;;;;10.05;78.76;101516.41;5016350;28;48676;-70
2022/02/20 05:35:24;;;;;;;;;3.00;1.00;;;;;10.02;79.00;101527.84;5016662;28;45637;-70
2022/02/20 05:37:51;;;;;;;;;3.00;2.25;;;;;10.02;78.98;101527.00;5016863;28;45802;-71
2022/02/20 05:40:18;;;;;;;;;7.75;2.00;;;;;10.02;78.64;101535.72;5015574;28;46087;-71
2022/02/20 05:42:44;;;;;;;;;4.00;1.75;;;;;10.04;78.89;101540.97;5016631;28;45858;-70
2022/02/20 05:45:10;;;;;;;;;2.00;2.00;;;;;10.02;78.83;101541.00;5016408;28;45499;-71
2022/02/20 05:47:35;;;;;;;;;13.00;0.75;;;;;10.04;78.96;101543.59;5016239;28;45366;-70
2022/02/20 05:50:02;;;;;;;;;1.50;1.50;;;;;10.05;79.10;101553.19;5016584;28;45653;-70
2022/02/20 05:52:27;;;;;;;;;2.50;2.00;;;;;10.08;79.01;101561.84;5016121;28;45278;-70
2022/02/20 05:54:52;;;;;;;;;2.25;0.50;;;;;10.11;78.98;101563.50;5016413;28;48297;-71
2022/02/20 05:57:18;;;;;;;;;5.25;2.00;;;;;10.14;79.33;101572.19;5016177;28;45354;-70
2022/02/20 05:59:43;;;;;;;;;3.25;2.00;;;;;10.15;79.09;101568.66;5016475;28;46952;-70
2022/02/20 06:02:08;;;;;;;;;1.75;1.75;;;;;10.17;79.21;101568.59;5015734;28;45395;-70
2022/02/20 06:04:34;;;;;;;;;4.25;1.00;;;;;10.18;79.29;101579.09;5016159;28;45171;-70
2022/02/20 06:06:59;;;;;;;;;7.00;2.00;;;;;10.19;79.04;101585.19;5017158;28;45380;-70
2022/02/20 06:09:25;;;;;;;;;3.75;1.75;;;;;10.23;79.44;101572.81;5015434;28;46331;-70
2022/02/20 06:11:50;;;;;;;;;3.25;2.00;;;;;10.26;79.15;101578.03;5015770;28;45411;-70
2022/02/20 06:14:16;;;;;;;;;8.25;3.00;;;;;10.28;79.01;101579.69;5016156;28;45396;-70
2022/02/20 06:16:41;;;;;;;;;4.50;1.00;;;;;10.33;79.03;101582.19;5015861;28;52401;-70
2022/02/20 06:19:06;;;;;;;;;2.50;1.25;;;;;10.37;78.94;101568.06;5015889;28;52297;-70
2022/02/20 06:21:32;;;;;;;;;3.75;1.00;;;;;10.41;78.70;101549.53;5015731;28;45422;-70
2022/02/20 06:23:57;;;;;;;;;1.00;0.00;;;;;10.42;78.70;101563.53;5015400;28;46478;-70
2022/02/20 06:26:22;;;;;;;;;3.50;2.00;;;;;10.43;79.23;101567.88;5016050;28;45360;-70
2022/02/20 06:28:48;;;;;;;;;2.00;1.50;;;;;10.45;79.09;101561.69;5015516;28;46341;-70
2022/02/20 06:31:13;;;;;;;;;4.00;2.00;;;;;10.47;78.83;101552.91;5015537;28;46826;-70
2022/02/20 06:33:39;;;;;;;;;4.00;1.50;;;;;10.48;78.72;101547.59;5015165;28;45748;-71
2022/02/20 06:36:06;;;;;;;;;6.25;2.00;;;;;10.51;78.54;101544.03;5014916;28;45494;-70
2022/02/20 06:38:31;;;;;;;;;6.00;1.00;;;;;10.50;78.95;101535.28;5014916;28;46076;-71
2022/02/20 06:40:56;;;;;;;;;2.00;0.50;;;;;10.50;78.98;101548.44;5015215;28;48402;-70
2022/02/20 06:43:22;;;;;;;;;1.75;1.75;;;;;10.54;78.77;101549.16;5015758;28;45769;-70
2022/02/20 06:45:47;;;;;;;;;3.33;1.33;;;;;10.55;78.66;101541.25;5015293;28;59557;-71
2022/02/20 06:48:12;;;;;;;;;1.00;1.00;;;;;10.58;78.68;101541.16;5015158;28;46915;-70
2022/02/20 06:50:38;;;;;;;;;2.00;2.00;;;;;10.59;78.60;101529.72;5014855;28;47733;-70
2022/02/20 06:53:05;;;;;;;;;2.50;2.50;;;;;10.60;78.62;101531.47;5015236;28;45253;-70
2022/02/20 06:55:31;;;;;;;;;1.50;0.00;;;;;10.61;78.67;101538.44;5014228;28;45609;-70
2022/02/20 06:57:58;;;;;;;;;3.00;1.75;;;;;10.64;78.53;101542.72;5016357;28;45947;-70
2022/02/20 07:00:24;;;;;;;;;2.00;0.75;;;;;10.67;78.46;101540.03;5014558;28;45899;-70
2022/02/20 07:02:50;;;;;;;;;4.75;1.75;;;;;10.69;78.56;101541.69;5015349;28;45518;-70
2022/02/20 07:05:15;;;;;;;;;2.75;2.75;;;;;10.71;78.67;101550.41;5014988;28;45411;-70
2022/02/20 07:07:40;;;;;;;;;7.75;1.50;;;;;10.75;78.55;101545.03;5014647;28;48259;-70
2022/02/20 07:10:07;;;;;;;;;0.75;0.75;;;;;10.76;78.67;101541.53;5015980;28;45580;-70
2022/02/20 07:12:33;;;;;;;;;4.50;2.00;;;;;10.78;78.41;101534.44;5014992;28;45529;-71
2022/02/20 07:14:58;;;;;;;;;4.00;1.00;;;;;10.77;78.54;101553.75;5015521;28;45483;-71
2022/02/20 07:17:23;;;;;;;;;7.00;1.00;;;;;10.79;78.63;101557.19;5014857;28;46185;-71
2022/02/20 07:19:49;;;;;;;;;3.50;1.50;;;;;10.79;78.43;101560.66;5014389;28;48343;-69
2022/02/20 07:22:14;;;;;;;;;5.00;2.00;;;;;10.81;78.74;101579.91;5015238;28;45257;-71
2022/02/20 07:24:39;;;;;;;;;4.00;2.00;;;;;10.84;78.46;101584.19;5015592;28;45429;-71
2022/02/20 07:27:05;;;;;;;;;2.25;1.25;;;;;10.87;78.63;101584.13;5014283;28;46175;-72
2022/02/20 07:29:30;;;;;;;;;6.25;2.00;;;;;10.87;78.70;101584.13;5014976;28;45505;-73
2022/02/20 07:31:55;;;;;;;;;2.00;1.00;;;;;10.88;78.51;101588.47;5014339;28;45524;-71
2022/02/20 07:34:21;;;;;;;;;7.00;1.75;;;;;10.91;78.90;101577.84;5014276;28;45485;-73
2022/02/20 07:36:46;;;;;;;;;11.75;4.25;;;;;10.94;78.61;101578.59;5015114;28;46767;-70
2022/02/20 07:39:12;;;;;;;;;1.75;1.75;;;;;10.98;78.60;101587.28;5013658;28;45501;-72
2022/02/20 07:41:39;;;;;;;;;3.75;2.00;;;;;11.03;78.47;101588.00;5014615;28;45448;-72
2022/02/20 07:44:05;;;;;;;;;1.50;1.50;;;;;11.08;78.44;101593.13;5014367;28;45429;-70
2022/02/20 07:46:31;;;;;;;;;8.50;2.00;;;;;11.13;78.58;101588.56;5014526;28;46292;-71
2022/02/20 07:48:59;;;;;;;;;2.25;1.50;;;;;11.17;77.98;101584.91;5015396;28;45308;-71
2022/02/20 07:51:24;;;;;;;;;7.75;2.50;;;;;11.22;78.18;101588.25;5013578;28;45493;-71
2022/02/20 07:53:51;;;;;;;;;2.50;1.50;;;;;11.28;77.89;101595.97;5014291;28;45563;-71
2022/02/20 07:56:16;;;;;;;;;2.00;2.00;;;;;11.37;77.84;101606.19;5013881;28;46403;-71
2022/02/20 07:58:43;;;;;;;;;4.75;1.00;;;;;11.44;77.88;101609.50;5014193;28;45537;-72
2022/02/20 08:01:10;;;;;;;;;2.00;2.00;;;;;11.46;77.47;101623.47;5014115;28;45478;-70
2022/02/20 08:03:36;;;;;;;;;3.50;2.00;;;;;11.45;77.70;101625.22;5014262;28;45426;-72
2022/02/20 08:06:01;;;;;;;;;1.50;1.25;;;;;11.45;77.71;101632.28;5013359;28;46166;-69
2022/02/20 08:08:27;;;;;;;;;8.25;3.00;;;;;11.46;77.36;101632.22;5013768;28;45503;-69
2022/02/20 08:10:53;;;;;;;;;3.00;1.00;;;;;11.52;77.69;101639.06;5014490;28;45357;-69
2022/02/20 08:13:18;;;;;;;;;1.75;1.50;;;;;11.58;77.35;101623.03;5013741;28;45397;-69
2022/02/20 08:15:43;;;;;;;;;1.00;1.00;;;;;11.69;77.43;101615.69;5013884;28;58453;-71
2022/02/20 08:18:09;;;;;;;;;1.25;1.25;;;;;11.81;76.74;101605.63;5014016;28;45430;-71
2022/02/20 08:20:34;;;;;;;;;3.50;2.00;;;;;11.91;76.69;101593.91;5013436;28;45317;-68
2022/02/20 08:22:59;;;;;;;;;8.50;3.50;;;;;11.97;76.45;101578.75;5014135;28;45447;-69
2022/02/20 08:25:25;;;;;;;;;2.50;1.50;;;;;12.12;76.10;101584.38;5014106;28;46302;-69
2022/02/20 08:27:51;;;;;;;;;4.00;2.00;;;;;12.33;76.38;101582.75;5015030;28;45524;-69
2022/02/20 08:30:16;;;;;;;;;3.00;2.00;;;;;12.54;75.29;101597.78;5014011;28;45676;-69
2022/02/20 08:32:42;;;;;;;;;4.50;3.00;;;;;12.62;74.38;101589.56;5013881;28;45496;-69
2022/02/20 08:35:11;;;;;;;;;8.00;2.75;;;;;12.68;74.65;101597.22;5012665;28;46097;-69
2022/02/20 08:37:37;;;;;;;;;3.75;2.00;;;;;12.76;74.62;101588.13;5013400;28;45822;-73
2022/02/20 08:40:05;;;;;;;;;2.75;1.00;;;;;12.87;73.78;101573.66;5015002;28;45551;-71
2022/02/20 08:42:30;;;;;;;;;7.50;1.75;;;;;13.01;73.67;101576.63;5014063;28;48104;-72
2022/02/20 08:44:57;;;;;;;;;3.00;3.00;;;;;13.18;73.49;101576.78;5012892;28;46098;-69
2022/02/20 08:47:22;;;;;;;;;8.75;4.25;;;;;13.30;73.07;101572.81;5013768;28;45333;-70
2022/02/20 08:49:47;;;;;;;;;3.00;1.00;;;;;13.44;72.36;101548.50;5013419;28;45333;-70
2022/02/20 08:52:13;;;;;;;;;7.75;2.50;;;;;13.55;72.17;101554.19;5013594;28;45500;-71
2022/02/20 08:54:38;;;;;;;;;3.25;2.00;;;;;13.70;72.36;101572.03;5013289;28;45316;-70
2022/02/20 08:57:07;;;;;;;;;3.25;1.50;;;;;13.82;71.17;101571.50;5013210;28;50998;-70
2022/02/20 08:59:33;;;;;;;;;2.50;1.00;;;;;13.90;71.36;101567.69;5013547;28;45468;-70
2022/02/20 09:01:58;;;;;;;;;2.25;1.25;;;;;14.01;70.85;101565.41;5013187;28;45508;-70
2022/02/20 09:04:23;;;;;;;;;1.00;1.00;;;;;14.00;70.19;101551.34;5011814;28;45396;-70
2022/02/20 09:06:51;;;;;;;;;2.00;1.00;;;;;13.96;69.95;101554.19;5013863;28;45589;-70
2022/02/20 09:09:16;;;;;;;;;3.50;0.50;;;;;13.87;69.86;101558.09;5012642;28;45524;-71
2022/02/20 09:11:43;;;;;;;;;5.50;3.00;;;;;13.85;70.38;101557.31;5012056;28;45446;-71
2022/02/20 09:14:08;;;;;;;;;12.25;3.75;;;;;14.01;70.39;101568.91;5011079;28;46178;-70
2022/02/20 09:16:34;;;;;;;;;3.25;1.75;;;;;14.35;70.11;101568.28;5011911;28;45474;-70
2022/02/20 09:19:03;;;;;;;;;2.50;1.25;;;;;14.70;68.93;101564.97;5013882;28;45447;-70
2022/02/20 09:21:32;;;;;;;;;2.00;1.00;;;;;15.95;70.09;101564.06;5016686;28;45678;-71
2022/02/20 09:23:58;;;;;;;;;8.25;3.25;;;;;17.50;66.80;101545.72;5016183;28;45399;-71
2022/02/20 09:26:23;;;;;;;;;3.00;2.50;;;;;18.83;63.27;101550.00;5016197;28;45893;-71
2022/02/20 09:28:49;;;;;;;;;4.50;1.00;;;;;18.59;60.91;101542.59;5016847;28;45423;-72
2022/02/20 09:31:14;;;;;;;;;3.25;2.00;;;;;18.29;61.75;101544.53;5002358;28;45451;-69
2022/02/20 09:33:40;;;;;;;;;4.00;2.00;;;;;19.29;62.50;101547.81;5016330;28;46196;-70
2022/02/20 09:36:07;;;;;;;;;10.00;4.25;;;;;21.27;56.25;101529.38;5016230;28;45312;-70
2022/02/20 09:38:33;;;;;;;;;4.00;1.00;;;;;22.08;55.84;101526.69;5015629;28;45504;-69
2022/02/20 09:40:58;;;;;;;;;3.25;2.00;;;;;23.77;53.63;101521.72;5016735;28;45845;-70
2022/02/20 09:43:23;;;;;;;;;7.25;1.75;;;;;24.36;52.46;101534.47;5015865;28;45444;-71
2022/02/20 09:45:51;;;;;;;;;2.25;2.00;;;;;24.79;48.24;101529.75;5018665;28;45459;-68
2022/02/20 09:48:16;;;;;;;;;4.00;3.25;;;;;25.46;48.17;101537.03;5016029;28;45403;-69
2022/02/20 09:50:44;;;;;;;;;5.00;2.00;;;;;26.91;47.11;101532.97;5016233;28;45509;-70
2022/02/20 09:53:09;;;;;;;;;5.25;3.75;;;;;26.70;45.18;101515.25;5014588;28;46219;-71
2022/02/20 09:55:35;;;;;;;;;2.00;0.75;;;;;26.00;45.66;101503.25;5011921;28;45616;-70
2022/02/20 09:58:00;;;;;;;;;2.00;1.00;;;;;26.50;43.61;101511.81;5018263;28;45510;-70
2022/02/20 10:00:26;;;;;;;;;5.00;2.00;;;;;25.45;43.63;101495.00;5017151;28;45472;-70
2022/02/20 10:02:51;;;;;;;;;2.50;1.25;;;;;25.32;45.66;101491.72;5015870;28;46632;-68
2022/02/20 10:05:19;;;;;;;;;2.00;1.50;;;;;25.66;43.49;101498.34;5016609;28;45395;-72
2022/02/20 10:07:46;;;;;;;;;2.50;1.00;;;;;24.07;43.70;101522.75;5013614;28;45469;-70
2022/02/20 10:10:25;;;;;;;;;4.25;2.00;;;;;23.37;46.17;101516.19;5017331;28;45487;-70
2022/02/20 10:13:03;;;;;;;;;0.50;0.50;;;;;22.63;45.27;101511.56;5018521;28;46403;-69
2022/02/20 10:15:29;;;;;;;;;3.50;1.25;;;;;22.27;47.36;101536.78;5014221;28;45622;-69
2022/02/20 10:18:08;;;;;;;;;2.00;1.25;;;;;23.13;46.70;101530.69;5017001;28;45443;-67
2022/02/20 10:20:33;;;;;;;;;2.00;1.75;;;;;23.63;45.92;101524.72;5020084;28;45420;-70
2022/02/20 10:23:04;;;;;;;;;0.75;0.75;;;;;23.15;45.65;101523.34;5015056;28;56232;-71
2022/02/20 10:25:30;;;;;;;;;3.50;1.25;;;;;22.37;45.70;101535.09;5015740;28;45716;-70
2022/02/20 10:27:55;;;;;;;;;3.00;0.50;;;;;21.78;46.92;101532.59;5015913;28;45455;-69
2022/02/20 10:30:26;;;;;;;;;3.25;3.25;;;;;22.18;48.45;101524.13;5016726;28;45666;-69
2022/02/20 10:33:10;;;;;;;;;3.00;0.75;;;;;23.21;46.67;101513.09;5015015;28;46267;-68
2022/02/20 10:35:38;;;;;;;;;1.00;1.00;;;;;23.72;45.81;101504.31;5013833;28;45683;-69
2022/02/20 10:38:12;;;;;;;;;2.25;1.00;;;;;23.94;44.79;101512.19;5019686;28;45522;-69
2022/02/20 10:40:39;;;;;;;;;1.00;1.00;;;;;23.67;45.46;101518.13;5015821;28;45313;-68
2022/02/20 10:43:07;;;;;;;;;1.00;1.00;;;;;23.52;45.83;101516.72;5019709;28;46275;-68
2022/02/20 10:45:34;;;;;;;;;1.25;1.00;;;;;23.32;44.96;101511.22;5018891;28;45920;-69
2022/02/20 10:48:02;;;;;;;;;3.75;1.00;;;;;22.98;45.15;101509.69;5020483;28;45740;-69
2022/02/20 10:50:30;;;;;;;;;0.00;0.00;;;;;22.55;46.27;101505.97;5016163;28;45396;-69
2022/02/20 10:53:19;;;;;;;;;3.50;0.00;;;;;22.02;46.12;101518.25;5017721;28;46541;-71
2022/02/20 10:55:47;;;;;;;;;0.00;0.00;;;;;21.53;46.58;101520.25;5015198;28;45701;-70
2022/02/20 10:58:31;;;;;;;;;1.00;1.00;;;;;20.97;47.67;101522.66;5016179;28;45479;-70
2022/02/20 11:01:01;;;;;;;;;9.25;5.75;;;;;20.57;47.57;101527.44;5014320;28;45425;-71
2022/02/20 11:03:30;;;;;;;;;3.00;1.25;;;;;20.14;47.88;101525.09;5014271;28;46138;-70
2022/02/20 11:05:57;;;;;;;;;8.50;2.75;;;;;19.71;48.06;101514.78;5013608;28;46615;-69
2022/02/20 11:08:24;;;;;;;;;3.75;2.00;;;;;19.30;48.81;101499.75;5014643;28;45517;-69
2022/02/20 11:10:51;;;;;;;;;1.00;1.00;;;;;19.11;49.42;101485.13;5014691;28;45366;-70
2022/02/20 11:13:18;;;;;;;;;1.75;0.75;;;;;18.91;49.43;101489.94;5014573;28;47101;-70
2022/02/20 11:15:48;;;;;;;;;3.50;1.25;;;;;18.61;49.95;101474.13;5014597;28;45665;-69
2022/02/20 11:18:17;;;;;;;;;2.50;1.00;;;;;18.34;50.40;101478.56;5015024;28;45398;-69